This is the latest recevied weather packets stored in our database for station/object DL5DI-H. If no packets are shown the sender has not sent any weather packets the latest 10 day(s).
| Time | Temp. | Humidity | Pressure | Rain* | Wind** | Luminosity | Snow |
|---|---|---|---|---|---|---|---|
| 1776945000 | 18.33° C | 33% | 1028.3 hPa | 0 mm | - | - | - |
| 1776944404 | 16.67° C | 39% | 1028.8 hPa | 0 mm | - | - | - |
| 1776943801 | 16.67° C | 39% | 1028.8 hPa | 0 mm | - | - | - |
| 1776943201 | 16.67° C | 39% | 1028.8 hPa | 0 mm | - | - | - |
| 1776942601 | 16.67° C | 39% | 1028.8 hPa | 0 mm | - | - | - |
| 1776942004 | 16.67° C | 39% | 1028.8 hPa | 0 mm | - | - | - |
| 1776941405 | 16.11° C | 40% | 1028.8 hPa | 0 mm | - | - | - |
| 1776940805 | 16.11° C | 43% | 1029 hPa | 0 mm | - | - | - |
| 1776940204 | 16.11° C | 43% | 1029 hPa | 0 mm | - | - | - |
| 1776939605 | 15° C | 48% | 1029.1 hPa | 0 mm | - | - | - |
| 1776939005 | 14.44° C | 46% | 1029.2 hPa | 0 mm | - | - | - |
| 1776938404 | 14.44° C | 46% | 1029.2 hPa | 0 mm | - | - | - |
| 1776937804 | 13.33° C | 47% | 1029.4 hPa | 0 mm | - | - | - |
| 1776937204 | 10° C | 72% | 1029.7 hPa | 0 mm | - | - | - |
| 1776936605 | 10° C | 72% | 1029.7 hPa | 0 mm | - | - | - |
| 1776936000 | 10° C | 72% | 1029.7 hPa | 0 mm | - | - | - |
| 1776935405 | 10° C | 72% | 1029.7 hPa | 0 mm | - | - | - |
| 1776934801 | 10° C | 72% | 1029.7 hPa | 0 mm | - | - | - |
| 1776934201 | 9.44° C | 73% | 1029.8 hPa | 0 mm | - | - | - |
| 1776933604 | 9.44° C | 73% | 1029.8 hPa | 0 mm | - | - | - |
| 1776933005 | 8.33° C | 76% | 1029.8 hPa | 0 mm | - | - | - |
| 1776932405 | 7.78° C | 78% | 1029.8 hPa | 0 mm | - | - | - |
| 1776931800 | 7.78° C | 78% | 1029.8 hPa | 0 mm | - | - | - |
| 1776931201 | 7.22° C | 79% | 1029.8 hPa | 0 mm | - | - | - |
| 1776930604 | 6.67° C | 80% | 1029.8 hPa | 0 mm | - | - | - |
* Rain latest hour (hover to see other rain measurements)
** Current wind speed in m/s (hover to see current wind gust speed)